Marchicora — V2OQ7 — position and weather

sailwx.info

Track history (hours):
 
Tides and Currents Weather Stations Pressure Air Temp Water Temp Dewpoint Dewpoint Depression Visibility Wind Speed Wind Dir Waves Ship Positions

Marchicora

Last reported at 2018-Apr-09 14:52 UTC. Time now 2018-Apr-22 14:41 UTC.
Position N 60°24' E 019°02'.
Warning: this ship's position is 12 days out of date.

Length 153 m; draft 10 m.

Type: Cargo ship. MMSI: 304653000.

Date/timePositionNaut miles runAvg speedWind from/ knotsBaromVisibWave heightAir tempDewpointWater temp
2018-Apr-09 14:52N 60°24' E 019°02'512.9
2018-Apr-09 14:30N 60°19' E 019°01'612.8
2018-Apr-09 14:00N 60°13' E 019°03'713.0
2018-Apr-09 13:30N 60°07' E 019°11'713.2
2018-Apr-09 13:00N 60°02' E 019°19'612.5
2018-Apr-09 12:30N 59°58' E 019°27'612.4
2018-Apr-09 12:00N 59°53' E 019°35'612.5
2018-Apr-09 11:30N 59°48' E 019°44'712.9
2018-Apr-09 11:00N 59°44' E 019°53'712.9
2018-Apr-09 10:29N 59°39' E 020°03'612.7
2018-Apr-09 10:00N 59°34' E 020°10'1412.2
2018-Apr-09 08:50N 59°21' E 019°60'412.9
2018-Apr-09 08:30N 59°17' E 019°55'713.3
2018-Apr-09 07:59N 59°11' E 019°49'913.2
2018-Apr-09 07:20N 59°04' E 019°40'17613.2
2018-Apr-08 17:56N 56°28' E 017°05'613.1
2018-Apr-08 17:29N 56°23' E 017°01'613.1
2018-Apr-08 17:00N 56°17' E 016°56'713.2
2018-Apr-08 16:30N 56°11' E 016°52'713.1
2018-Apr-08 16:00N 56°05' E 016°48'612.9
2018-Apr-08 15:30N 56°01' E 016°39'612.7
2018-Apr-08 15:00N 55°58' E 016°29'612.7
2018-Apr-08 14:30N 55°55' E 016°19'612.8
2018-Apr-08 14:00N 55°52' E 016°09'612.8
2018-Apr-08 13:30N 55°49' E 015°59'612.8
2018-Apr-08 13:00N 55°46' E 015°49'612.9
2018-Apr-08 12:30N 55°42' E 015°39'713.2
2018-Apr-08 12:00N 55°39' E 015°29'613.0
2018-Apr-08 11:30N 55°36' E 015°19'612.9
2018-Apr-08 11:00N 55°33' E 015°09'2 3.3
2018-Apr-08 10:30N 55°32' E 015°07'0 0.5
2018-Apr-08 10:00N 55°32' E 015°07'0 0.5
2018-Apr-08 09:30N 55°31' E 015°07'0 0.6
2018-Apr-08 09:00N 55°31' E 015°07'0 0.6
2018-Apr-08 08:30N 55°31' E 015°07'0 0.5
2018-Apr-08 08:00N 55°30' E 015°07'3 5.8
2018-Apr-08 07:30N 55°30' E 015°02'510.6
2018-Apr-08 07:00N 55°28' E 014°53'611.9
2018-Apr-08 06:30N 55°25' E 014°44'713.7
2018-Apr-08 06:01N 55°21' E 014°35'713.5
2018-Apr-08 05:30N 55°16' E 014°28'713.4
2018-Apr-08 05:00N 55°11' E 014°20'713.8
2018-Apr-08 04:30N 55°05' E 014°13'613.0
2018-Apr-08 04:00N 55°01' E 014°05'4613.1
2018-Apr-08 00:32N 54°46' E 012°50'212.6
2018-Apr-08 00:24N 54°45' E 012°47'512.7
2018-Apr-08 00:00N 54°43' E 012°39'712.7
2018-Apr-07 23:28N 54°39' E 012°29'612.7
2018-Apr-07 23:00N 54°36' E 012°21'612.7
2018-Apr-07 22:30N 54°30' E 012°15'612.8
2018-Apr-07 22:00N 54°25' E 012°09'612.8
2018-Apr-07 21:30N 54°25' E 011°58'612.6
2018-Apr-07 21:00N 54°25' E 011°47'612.5
2018-Apr-07 20:30N 54°27' E 011°37'612.8
2018-Apr-07 20:00N 54°30' E 011°28'612.7
2018-Apr-07 19:30N 54°33' E 011°18'612.3
2018-Apr-07 19:00N 54°36' E 011°08'611.9
2018-Apr-07 18:30N 54°39' E 010°60'611.9
2018-Apr-07 18:00N 54°43' E 010°51'611.8
2018-Apr-07 17:30N 54°48' E 010°52'611.3
2018-Apr-07 17:00N 54°54' E 010°53'611.3
2018-Apr-07 16:30N 54°59' E 010°59'611.4
2018-Apr-07 16:00N 55°04' E 011°02'612.0
2018-Apr-07 15:30N 55°10' E 011°03'510.6
2018-Apr-07 15:00N 55°15' E 011°05'611.2
2018-Apr-07 14:30N 55°21' E 011°02'611.4
2018-Apr-07 13:59N 55°26' E 010°57'4710.3
2018-Apr-07 09:22N 56°12' E 011°18'412.2
2018-Apr-07 09:00N 56°16' E 011°21'712.1
2018-Apr-07 08:25N 56°22' E 011°27'512.3
2018-Apr-07 08:00N 56°26' E 011°32'612.1
2018-Apr-07 07:30N 56°32' E 011°38'611.6
2018-Apr-07 07:00N 56°37' E 011°43'611.8
2018-Apr-07 06:30N 56°42' E 011°48'611.1
2018-Apr-07 06:00N 56°47' E 011°51'611.7
2018-Apr-07 05:30N 56°53' E 011°47'611.8
2018-Apr-07 05:00N 56°58' E 011°43'611.6
2018-Apr-07 04:30N 57°04' E 011°40'611.8
2018-Apr-07 03:59N 57°09' E 011°36'612.3
2018-Apr-07 03:30N 57°15' E 011°32'612.6
2018-Apr-07 03:00N 57°21' E 011°28'612.7
2018-Apr-07 02:30N 57°27' E 011°24'612.3
2018-Apr-07 02:00N 57°31' E 011°16'612.6
2018-Apr-07 01:30N 57°36' E 011°08'713.0
2018-Apr-07 01:00N 57°40' E 010°59'612.4
2018-Apr-07 00:30N 57°44' E 010°50'612.4
2018-Apr-07 00:00N 57°48' E 010°41'612.8
2018-Apr-06 23:30N 57°49' E 010°29'613.0
2018-Apr-06 23:00N 57°49' E 010°17'713.0
2018-Apr-06 22:28N 57°48' E 010°04'612.8
2018-Apr-06 21:59N 57°48' E 009°52'612.9
2018-Apr-06 21:30N 57°46' E 009°41'713.3
2018-Apr-06 21:00N 57°42' E 009°31'713.5
2018-Apr-06 20:29N 57°39' E 009°20'713.5
2018-Apr-06 19:59N 57°35' E 009°09'613.7
2018-Apr-06 19:30N 57°32' E 008°58'713.7
2018-Apr-06 18:58N 57°28' E 008°46'713.7
2018-Apr-06 18:29N 57°25' E 008°36'713.7
2018-Apr-06 17:57N 57°21' E 008°24'38110.8
2018-Apr-05 06:33N 51°45' E 003°15'2 9.4
2018-Apr-05 06:23N 51°43' E 003°14'511.2
2018-Apr-05 05:57N 51°39' E 003°12'613.6
2018-Apr-05 05:30N 51°33' E 003°08'714.3
2018-Apr-05 05:00N 51°28' E 003°01'5 9.7
2018-Apr-05 04:30N 51°24' E 003°06'510.5
2018-Apr-05 04:00N 51°25' E 003°14'510.2
2018-Apr-05 03:30N 51°25' E 003°22'510.2
2018-Apr-05 03:00N 51°25' E 003°30'4 7.5
2018-Apr-05 02:30N 51°26' E 003°36'3 6.0
2018-Apr-05 02:00N 51°26' E 003°41'510.1
2018-Apr-05 01:30N 51°22' E 003°46'5 9.9
2018-Apr-05 01:00N 51°21' E 003°53'5 9.9
2018-Apr-05 00:30N 51°25' E 003°58'4 7.7
2018-Apr-05 00:00N 51°23' E 004°03'510.9
2018-Apr-04 23:30N 51°24' E 004°11'5 9.3
2018-Apr-04 23:00N 51°21' E 004°17'0 0.7
2018-Apr-04 22:31N 51°21' E 004°17'0 0.1
2018-Apr-04 22:00N 51°21' E 004°17'2 4.4
2018-Apr-04 21:30N 51°19' E 004°19'2 3.7
2018-Apr-04 21:00N 51°17' E 004°20'2 3.9
2018-Apr-04 20:30N 51°16' E 004°22'0 0.0
2018-Apr-04 19:59N 51°16' E 004°22'0 0.0
2018-Apr-04 19:29N 51°16' E 004°22'0 0.0
2018-Apr-04 18:59N 51°16' E 004°22'0 0.0
2018-Apr-04 18:29N 51°16' E 004°22'0 0.0
2018-Apr-04 17:59N 51°16' E 004°22'0 0.0
2018-Apr-04 17:26N 51°16' E 004°22'0 0.0
2018-Apr-04 16:59N 51°16' E 004°22'0 0.0
2018-Apr-04 16:29N 51°16' E 004°22'0 0.0
2018-Apr-04 15:59N 51°16' E 004°22'0 0.0
2018-Apr-04 15:26N 51°16' E 004°22'0 0.0
2018-Apr-04 14:59N 51°16' E 004°22'0 0.0
2018-Apr-04 14:29N 51°16' E 004°22'0 0.0
2018-Apr-04 13:59N 51°16' E 004°22'0 0.0
2018-Apr-04 13:29N 51°16' E 004°22'0 0.0
2018-Apr-04 12:59N 51°16' E 004°22'0 0.0
2018-Apr-04 12:26N 51°16' E 004°22'0 0.0
2018-Apr-04 11:59N 51°16' E 004°22'0 0.0
2018-Apr-04 11:29N 51°16' E 004°22'0 0.0
2018-Apr-04 10:59N 51°16' E 004°22'0 0.0
2018-Apr-04 10:29N 51°16' E 004°22'0 0.0
2018-Apr-04 09:58N 51°16' E 004°22'0 0.0
2018-Apr-04 09:31N 51°16' E 004°22'0 0.0
2018-Apr-04 09:01N 51°16' E 004°22'0 0.0
2018-Apr-04 08:31N 51°16' E 004°22'0 0.0
2018-Apr-04 08:00N 51°16' E 004°22'0 0.0
2018-Apr-04 07:30N 51°16' E 004°22'0 0.0
2018-Apr-04 07:00N 51°16' E 004°22'0 0.0
2018-Apr-04 06:30N 51°16' E 004°22'0 0.0
2018-Apr-04 06:00N 51°16' E 004°22'0 0.0
2018-Apr-04 05:30N 51°16' E 004°22'0 0.0
2018-Apr-04 04:58N 51°16' E 004°22'0 0.0
2018-Apr-04 04:25N 51°16' E 004°22'0 0.0
2018-Apr-04 04:00N 51°16' E 004°22'0 0.0
2018-Apr-04 03:30N 51°16' E 004°22'0 0.0
2018-Apr-04 03:00N 51°16' E 004°22'0 0.0
2018-Apr-04 02:30N 51°16' E 004°22'0 0.0
2018-Apr-04 02:00N 51°16' E 004°22'0 0.0
2018-Apr-04 01:30N 51°16' E 004°22'0 0.0
2018-Apr-04 00:55N 51°16' E 004°22'0 0.0
2018-Apr-04 00:28N 51°16' E 004°22'0 0.0
2018-Apr-03 23:58N 51°16' E 004°22'0 0.0
2018-Apr-03 23:25N 51°16' E 004°22'0 0.0
2018-Apr-03 22:58N 51°16' E 004°22'0 0.0
2018-Apr-03 22:28N 51°16' E 004°22'0 0.0
2018-Apr-03 21:58N 51°16' E 004°22'0 0.0
2018-Apr-03 21:25N 51°16' E 004°22'0 0.0
2018-Apr-03 20:58N 51°16' E 004°22'0 0.0
2018-Apr-03 20:28N 51°16' E 004°22'0 0.0
2018-Apr-03 19:58N 51°16' E 004°22'0 0.0
2018-Apr-03 19:28N 51°16' E 004°22'0 0.0
2018-Apr-03 18:58N 51°16' E 004°22'0 0.0
2018-Apr-03 18:28N 51°16' E 004°22'0 0.0
2018-Apr-03 17:55N 51°16' E 004°22'0 0.0
2018-Apr-03 17:28N 51°16' E 004°22'0 0.0
2018-Apr-03 16:58N 51°16' E 004°22'0 0.0
2018-Apr-03 16:28N 51°16' E 004°22'0 0.0
2018-Apr-03 15:55N 51°16' E 004°22'0 0.0
2018-Apr-03 15:28N 51°16' E 004°22'0 0.0
2018-Apr-03 14:58N 51°16' E 004°22'1 1.7
2018-Apr-03 14:31N 51°16' E 004°21'2 4.4
2018-Apr-03 13:59N 51°18' E 004°20'3 6.5
2018-Apr-03 13:30N 51°21' E 004°18'0 0.7
2018-Apr-03 13:00N 51°21' E 004°17'0 0.0
2018-Apr-03 12:30N 51°21' E 004°17'0 0.0
2018-Apr-03 12:00N 51°21' E 004°17'2 3.4
2018-Apr-03 11:30N 51°21' E 004°15'3 6.9
2018-Apr-03 11:00N 51°23' E 004°10'510.0
2018-Apr-03 10:30N 51°23' E 004°03'4 7.6
2018-Apr-03 10:00N 51°26' E 003°58'510.3
2018-Apr-03 09:30N 51°21' E 003°54'5 9.6
2018-Apr-03 09:00N 51°21' E 003°46'4 8.7
2018-Apr-03 08:30N 51°25' E 003°42'4 8.3
2018-Apr-03 08:00N 51°26' E 003°36'4 8.5
2018-Apr-03 07:30N 51°25' E 003°29'5 9.8
2018-Apr-03 07:00N 51°24' E 003°21'5 9.8
2018-Apr-03 06:30N 51°24' E 003°13'611.1
2018-Apr-03 06:00N 51°24' E 003°04'611.8
2018-Apr-03 05:30N 51°22' E 002°55'612.7
2018-Apr-03 05:00N 51°22' E 002°45'610.3
2018-Apr-03 04:28N 51°22' E 002°36'4 7.9
2018-Apr-03 03:58N 51°22' E 002°30'613.5
2018-Apr-03 03:30N 51°19' E 002°21'815.1
2018-Apr-03 03:00N 51°16' E 002°10'815.7
2018-Apr-03 02:30N 51°12' E 001°59'816.0
2018-Apr-03 02:00N 51°08' E 001°48'816.8
2018-Apr-03 01:31N 51°02' E 001°39'917.0
2018-Apr-03 01:00N 50°55' E 001°31'5614.4
2018-Apr-02 21:06N 50°22' E 000°19'515.1
2018-Apr-02 20:47N 50°21' E 000°12'414.8
2018-Apr-02 20:30N 50°20' E 000°06'714.1
2018-Apr-02 20:00N 50°19' W 000°05'713.8
2018-Apr-02 19:31N 50°17' W 000°16'813.4
2018-Apr-02 18:56N 50°15' W 000°27'612.8
2018-Apr-02 18:30N 50°13' W 000°36'612.1
2018-Apr-02 18:00N 50°12' W 000°45'611.5
2018-Apr-02 17:29N 50°11' W 000°54'510.7
2018-Apr-02 17:00N 50°09' W 001°02'510.2
2018-Apr-02 16:30N 50°08' W 001°09'5 9.8
2018-Apr-02 16:00N 50°06' W 001°17'5 9.2
2018-Apr-02 15:30N 50°05' W 001°23'5 9.1
2018-Apr-02 15:00N 50°04' W 001°30'5 9.1
2018-Apr-02 14:30N 50°03' W 001°37'5 9.3
2018-Apr-02 14:00N 50°02' W 001°44'510.0
2018-Apr-02 13:30N 50°00' W 001°52'510.9
2018-Apr-02 13:00N 49°59' W 001°60'611.8
2018-Apr-02 12:30N 49°57' W 002°09'3913.5
2018-Apr-02 09:38N 49°44' W 003°06'414.3
2018-Apr-02 09:20N 49°42' W 003°11'8314.7
2018-Apr-02 03:43N 49°00' W 005°01'314.8
2018-Apr-02 03:30N 48°59' W 005°05'714.3
2018-Apr-02 03:01N 48°56' W 005°15'714.0
2018-Apr-02 02:30N 48°52' W 005°24'713.8
2018-Apr-02 01:58N 48°48' W 005°33'58712.0
2018-Mar-31 01:09N 39°31' W 009°53'5 9.8
2018-Mar-31 00:40N 39°27' W 009°53'2 9.5
2018-Mar-31 00:26N 39°24' W 009°53'4 9.6
2018-Mar-31 00:00N 39°20' W 009°53'5 9.8
2018-Mar-30 23:30N 39°15' W 009°53'5 9.8
2018-Mar-30 23:00N 39°10' W 009°53'5 9.3
2018-Mar-30 22:30N 39°06' W 009°53'5 9.2
2018-Mar-30 22:00N 39°01' W 009°53'5 9.3
2018-Mar-30 21:30N 38°56' W 009°53'5 9.4
2018-Mar-30 21:00N 38°52' W 009°53'5 9.0
2018-Mar-30 20:28N 38°47' W 009°52'4 9.0
2018-Mar-30 20:00N 38°43' W 009°52'4 8.9
2018-Mar-30 19:30N 38°38' W 009°50'4 8.8
2018-Mar-30 19:00N 38°34' W 009°49'4 8.9
2018-Mar-30 18:30N 38°30' W 009°48'5 9.2
2018-Mar-30 18:00N 38°25' W 009°46'5 9.5
2018-Mar-30 17:29N 38°21' W 009°45'5 9.9
2018-Mar-30 17:00N 38°16' W 009°43'510.1
2018-Mar-30 16:30N 38°11' W 009°41'510.3
2018-Mar-30 16:00N 38°06' W 009°40'510.5
2018-Mar-30 15:30N 38°01' W 009°38'611.0
2018-Mar-30 15:00N 37°56' W 009°37'  
Track history (hours):
 
Tides and Currents Weather Stations Pressure Air Temp Water Temp Dewpoint Dewpoint Depression Visibility Wind Speed Wind Dir Waves Ship Positions

Marchicora

Last reported at 2018-Apr-09 14:52 UTC. Time now 2018-Apr-22 14:41 UTC.
Position N 60°24' E 019°02'.
Warning: this ship's position is 12 days out of date.

Length 153 m; draft 10 m.

Type: Cargo ship. MMSI: 304653000.

Date/timePositionNaut miles runAvg speedWind from/ knotsBaromVisibWave heightAir tempDewpointWater temp
2018-Apr-09 14:52N 60°24' E 019°02'512.9
2018-Apr-09 14:30N 60°19' E 019°01'612.8
2018-Apr-09 14:00N 60°13' E 019°03'713.0
2018-Apr-09 13:30N 60°07' E 019°11'713.2
2018-Apr-09 13:00N 60°02' E 019°19'612.5
2018-Apr-09 12:30N 59°58' E 019°27'612.4
2018-Apr-09 12:00N 59°53' E 019°35'612.5
2018-Apr-09 11:30N 59°48' E 019°44'712.9
2018-Apr-09 11:00N 59°44' E 019°53'712.9
2018-Apr-09 10:29N 59°39' E 020°03'612.7
2018-Apr-09 10:00N 59°34' E 020°10'1412.2
2018-Apr-09 08:50N 59°21' E 019°60'412.9
2018-Apr-09 08:30N 59°17' E 019°55'713.3
2018-Apr-09 07:59N 59°11' E 019°49'913.2
2018-Apr-09 07:20N 59°04' E 019°40'17613.2
2018-Apr-08 17:56N 56°28' E 017°05'613.1
2018-Apr-08 17:29N 56°23' E 017°01'613.1
2018-Apr-08 17:00N 56°17' E 016°56'713.2
2018-Apr-08 16:30N 56°11' E 016°52'713.1
2018-Apr-08 16:00N 56°05' E 016°48'612.9
2018-Apr-08 15:30N 56°01' E 016°39'612.7
2018-Apr-08 15:00N 55°58' E 016°29'612.7
2018-Apr-08 14:30N 55°55' E 016°19'612.8
2018-Apr-08 14:00N 55°52' E 016°09'612.8
2018-Apr-08 13:30N 55°49' E 015°59'612.8
2018-Apr-08 13:00N 55°46' E 015°49'612.9
2018-Apr-08 12:30N 55°42' E 015°39'713.2
2018-Apr-08 12:00N 55°39' E 015°29'613.0
2018-Apr-08 11:30N 55°36' E 015°19'612.9
2018-Apr-08 11:00N 55°33' E 015°09'2 3.3
2018-Apr-08 10:30N 55°32' E 015°07'0 0.5
2018-Apr-08 10:00N 55°32' E 015°07'0 0.5
2018-Apr-08 09:30N 55°31' E 015°07'0 0.6
2018-Apr-08 09:00N 55°31' E 015°07'0 0.6
2018-Apr-08 08:30N 55°31' E 015°07'0 0.5
2018-Apr-08 08:00N 55°30' E 015°07'3 5.8
2018-Apr-08 07:30N 55°30' E 015°02'510.6
2018-Apr-08 07:00N 55°28' E 014°53'611.9
2018-Apr-08 06:30N 55°25' E 014°44'713.7
2018-Apr-08 06:01N 55°21' E 014°35'713.5
2018-Apr-08 05:30N 55°16' E 014°28'713.4
2018-Apr-08 05:00N 55°11' E 014°20'713.8
2018-Apr-08 04:30N 55°05' E 014°13'613.0
2018-Apr-08 04:00N 55°01' E 014°05'4613.1
2018-Apr-08 00:32N 54°46' E 012°50'212.6
2018-Apr-08 00:24N 54°45' E 012°47'512.7
2018-Apr-08 00:00N 54°43' E 012°39'712.7
2018-Apr-07 23:28N 54°39' E 012°29'612.7
2018-Apr-07 23:00N 54°36' E 012°21'612.7
2018-Apr-07 22:30N 54°30' E 012°15'612.8
2018-Apr-07 22:00N 54°25' E 012°09'612.8
2018-Apr-07 21:30N 54°25' E 011°58'612.6
2018-Apr-07 21:00N 54°25' E 011°47'612.5
2018-Apr-07 20:30N 54°27' E 011°37'612.8
2018-Apr-07 20:00N 54°30' E 011°28'612.7
2018-Apr-07 19:30N 54°33' E 011°18'612.3
2018-Apr-07 19:00N 54°36' E 011°08'611.9
2018-Apr-07 18:30N 54°39' E 010°60'611.9
2018-Apr-07 18:00N 54°43' E 010°51'611.8
2018-Apr-07 17:30N 54°48' E 010°52'611.3
2018-Apr-07 17:00N 54°54' E 010°53'611.3
2018-Apr-07 16:30N 54°59' E 010°59'611.4
2018-Apr-07 16:00N 55°04' E 011°02'612.0
2018-Apr-07 15:30N 55°10' E 011°03'510.6
2018-Apr-07 15:00N 55°15' E 011°05'611.2
2018-Apr-07 14:30N 55°21' E 011°02'611.4
2018-Apr-07 13:59N 55°26' E 010°57'4710.3
2018-Apr-07 09:22N 56°12' E 011°18'412.2
2018-Apr-07 09:00N 56°16' E 011°21'712.1
2018-Apr-07 08:25N 56°22' E 011°27'512.3
2018-Apr-07 08:00N 56°26' E 011°32'612.1
2018-Apr-07 07:30N 56°32' E 011°38'611.6
2018-Apr-07 07:00N 56°37' E 011°43'611.8
2018-Apr-07 06:30N 56°42' E 011°48'611.1
2018-Apr-07 06:00N 56°47' E 011°51'611.7
2018-Apr-07 05:30N 56°53' E 011°47'611.8
2018-Apr-07 05:00N 56°58' E 011°43'611.6
2018-Apr-07 04:30N 57°04' E 011°40'611.8
2018-Apr-07 03:59N 57°09' E 011°36'612.3
2018-Apr-07 03:30N 57°15' E 011°32'612.6
2018-Apr-07 03:00N 57°21' E 011°28'612.7
2018-Apr-07 02:30N 57°27' E 011°24'612.3
2018-Apr-07 02:00N 57°31' E 011°16'612.6
2018-Apr-07 01:30N 57°36' E 011°08'713.0
2018-Apr-07 01:00N 57°40' E 010°59'612.4
2018-Apr-07 00:30N 57°44' E 010°50'612.4
2018-Apr-07 00:00N 57°48' E 010°41'612.8
2018-Apr-06 23:30N 57°49' E 010°29'613.0
2018-Apr-06 23:00N 57°49' E 010°17'713.0
2018-Apr-06 22:28N 57°48' E 010°04'612.8
2018-Apr-06 21:59N 57°48' E 009°52'612.9
2018-Apr-06 21:30N 57°46' E 009°41'713.3
2018-Apr-06 21:00N 57°42' E 009°31'713.5
2018-Apr-06 20:29N 57°39' E 009°20'713.5
2018-Apr-06 19:59N 57°35' E 009°09'613.7
2018-Apr-06 19:30N 57°32' E 008°58'713.7
2018-Apr-06 18:58N 57°28' E 008°46'713.7
2018-Apr-06 18:29N 57°25' E 008°36'713.7
2018-Apr-06 17:57N 57°21' E 008°24'38110.8
2018-Apr-05 06:33N 51°45' E 003°15'2 9.4
2018-Apr-05 06:23N 51°43' E 003°14'511.2
2018-Apr-05 05:57N 51°39' E 003°12'613.6
2018-Apr-05 05:30N 51°33' E 003°08'714.3
2018-Apr-05 05:00N 51°28' E 003°01'5 9.7
2018-Apr-05 04:30N 51°24' E 003°06'510.5
2018-Apr-05 04:00N 51°25' E 003°14'510.2
2018-Apr-05 03:30N 51°25' E 003°22'510.2
2018-Apr-05 03:00N 51°25' E 003°30'4 7.5
2018-Apr-05 02:30N 51°26' E 003°36'3 6.0
2018-Apr-05 02:00N 51°26' E 003°41'510.1
2018-Apr-05 01:30N 51°22' E 003°46'5 9.9
2018-Apr-05 01:00N 51°21' E 003°53'5 9.9
2018-Apr-05 00:30N 51°25' E 003°58'4 7.7
2018-Apr-05 00:00N 51°23' E 004°03'510.9
2018-Apr-04 23:30N 51°24' E 004°11'5 9.3
2018-Apr-04 23:00N 51°21' E 004°17'0 0.7
2018-Apr-04 22:31N 51°21' E 004°17'0 0.1
2018-Apr-04 22:00N 51°21' E 004°17'2 4.4
2018-Apr-04 21:30N 51°19' E 004°19'2 3.7
2018-Apr-04 21:00N 51°17' E 004°20'2 3.9
2018-Apr-04 20:30N 51°16' E 004°22'0 0.0
2018-Apr-04 19:59N 51°16' E 004°22'0 0.0
2018-Apr-04 19:29N 51°16' E 004°22'0 0.0
2018-Apr-04 18:59N 51°16' E 004°22'0 0.0
2018-Apr-04 18:29N 51°16' E 004°22'0 0.0
2018-Apr-04 17:59N 51°16' E 004°22'0 0.0
2018-Apr-04 17:26N 51°16' E 004°22'0 0.0
2018-Apr-04 16:59N 51°16' E 004°22'0 0.0
2018-Apr-04 16:29N 51°16' E 004°22'0 0.0
2018-Apr-04 15:59N 51°16' E 004°22'0 0.0
2018-Apr-04 15:26N 51°16' E 004°22'0 0.0
2018-Apr-04 14:59N 51°16' E 004°22'0 0.0
2018-Apr-04 14:29N 51°16' E 004°22'0 0.0
2018-Apr-04 13:59N 51°16' E 004°22'0 0.0
2018-Apr-04 13:29N 51°16' E 004°22'0 0.0
2018-Apr-04 12:59N 51°16' E 004°22'0 0.0
2018-Apr-04 12:26N 51°16' E 004°22'0 0.0
2018-Apr-04 11:59N 51°16' E 004°22'0 0.0
2018-Apr-04 11:29N 51°16' E 004°22'0 0.0
2018-Apr-04 10:59N 51°16' E 004°22'0 0.0
2018-Apr-04 10:29N 51°16' E 004°22'0 0.0
2018-Apr-04 09:58N 51°16' E 004°22'0 0.0
2018-Apr-04 09:31N 51°16' E 004°22'0 0.0
2018-Apr-04 09:01N 51°16' E 004°22'0 0.0
2018-Apr-04 08:31N 51°16' E 004°22'0 0.0
2018-Apr-04 08:00N 51°16' E 004°22'0 0.0
2018-Apr-04 07:30N 51°16' E 004°22'0 0.0
2018-Apr-04 07:00N 51°16' E 004°22'0 0.0
2018-Apr-04 06:30N 51°16' E 004°22'0 0.0
2018-Apr-04 06:00N 51°16' E 004°22'0 0.0
2018-Apr-04 05:30N 51°16' E 004°22'0 0.0
2018-Apr-04 04:58N 51°16' E 004°22'0 0.0
2018-Apr-04 04:25N 51°16' E 004°22'0 0.0
2018-Apr-04 04:00N 51°16' E 004°22'0 0.0
2018-Apr-04 03:30N 51°16' E 004°22'0 0.0
2018-Apr-04 03:00N 51°16' E 004°22'0 0.0
2018-Apr-04 02:30N 51°16' E 004°22'0 0.0
2018-Apr-04 02:00N 51°16' E 004°22'0 0.0
2018-Apr-04 01:30N 51°16' E 004°22'0 0.0
2018-Apr-04 00:55N 51°16' E 004°22'0 0.0
2018-Apr-04 00:28N 51°16' E 004°22'0 0.0
2018-Apr-03 23:58N 51°16' E 004°22'0 0.0
2018-Apr-03 23:25N 51°16' E 004°22'0 0.0
2018-Apr-03 22:58N 51°16' E 004°22'0 0.0
2018-Apr-03 22:28N 51°16' E 004°22'0 0.0
2018-Apr-03 21:58N 51°16' E 004°22'0 0.0
2018-Apr-03 21:25N 51°16' E 004°22'0 0.0
2018-Apr-03 20:58N 51°16' E 004°22'0 0.0
2018-Apr-03 20:28N 51°16' E 004°22'0 0.0
2018-Apr-03 19:58N 51°16' E 004°22'0 0.0
2018-Apr-03 19:28N 51°16' E 004°22'0 0.0
2018-Apr-03 18:58N 51°16' E 004°22'0 0.0
2018-Apr-03 18:28N 51°16' E 004°22'0 0.0
2018-Apr-03 17:55N 51°16' E 004°22'0 0.0
2018-Apr-03 17:28N 51°16' E 004°22'0 0.0
2018-Apr-03 16:58N 51°16' E 004°22'0 0.0
2018-Apr-03 16:28N 51°16' E 004°22'0 0.0
2018-Apr-03 15:55N 51°16' E 004°22'0 0.0
2018-Apr-03 15:28N 51°16' E 004°22'0 0.0
2018-Apr-03 14:58N 51°16' E 004°22'1 1.7
2018-Apr-03 14:31N 51°16' E 004°21'2 4.4
2018-Apr-03 13:59N 51°18' E 004°20'3 6.5
2018-Apr-03 13:30N 51°21' E 004°18'0 0.7
2018-Apr-03 13:00N 51°21' E 004°17'0 0.0
2018-Apr-03 12:30N 51°21' E 004°17'0 0.0
2018-Apr-03 12:00N 51°21' E 004°17'2 3.4
2018-Apr-03 11:30N 51°21' E 004°15'3 6.9
2018-Apr-03 11:00N 51°23' E 004°10'510.0
2018-Apr-03 10:30N 51°23' E 004°03'4 7.6
2018-Apr-03 10:00N 51°26' E 003°58'510.3
2018-Apr-03 09:30N 51°21' E 003°54'5 9.6
2018-Apr-03 09:00N 51°21' E 003°46'4 8.7
2018-Apr-03 08:30N 51°25' E 003°42'4 8.3
2018-Apr-03 08:00N 51°26' E 003°36'4 8.5
2018-Apr-03 07:30N 51°25' E 003°29'5 9.8
2018-Apr-03 07:00N 51°24' E 003°21'5 9.8
2018-Apr-03 06:30N 51°24' E 003°13'611.1
2018-Apr-03 06:00N 51°24' E 003°04'611.8
2018-Apr-03 05:30N 51°22' E 002°55'612.7
2018-Apr-03 05:00N 51°22' E 002°45'610.3
2018-Apr-03 04:28N 51°22' E 002°36'4 7.9
2018-Apr-03 03:58N 51°22' E 002°30'613.5
2018-Apr-03 03:30N 51°19' E 002°21'815.1
2018-Apr-03 03:00N 51°16' E 002°10'815.7
2018-Apr-03 02:30N 51°12' E 001°59'816.0
2018-Apr-03 02:00N 51°08' E 001°48'816.8
2018-Apr-03 01:31N 51°02' E 001°39'917.0
2018-Apr-03 01:00N 50°55' E 001°31'5614.4
2018-Apr-02 21:06N 50°22' E 000°19'515.1
2018-Apr-02 20:47N 50°21' E 000°12'414.8
2018-Apr-02 20:30N 50°20' E 000°06'714.1
2018-Apr-02 20:00N 50°19' W 000°05'713.8
2018-Apr-02 19:31N 50°17' W 000°16'813.4
2018-Apr-02 18:56N 50°15' W 000°27'612.8
2018-Apr-02 18:30N 50°13' W 000°36'612.1
2018-Apr-02 18:00N 50°12' W 000°45'611.5
2018-Apr-02 17:29N 50°11' W 000°54'510.7
2018-Apr-02 17:00N 50°09' W 001°02'510.2
2018-Apr-02 16:30N 50°08' W 001°09'5 9.8
2018-Apr-02 16:00N 50°06' W 001°17'5 9.2
2018-Apr-02 15:30N 50°05' W 001°23'5 9.1
2018-Apr-02 15:00N 50°04' W 001°30'5 9.1
2018-Apr-02 14:30N 50°03' W 001°37'5 9.3
2018-Apr-02 14:00N 50°02' W 001°44'510.0
2018-Apr-02 13:30N 50°00' W 001°52'510.9
2018-Apr-02 13:00N 49°59' W 001°60'611.8
2018-Apr-02 12:30N 49°57' W 002°09'3913.5
2018-Apr-02 09:38N 49°44' W 003°06'414.3
2018-Apr-02 09:20N 49°42' W 003°11'8314.7
2018-Apr-02 03:43N 49°00' W 005°01'314.8
2018-Apr-02 03:30N 48°59' W 005°05'714.3
2018-Apr-02 03:01N 48°56' W 005°15'714.0
2018-Apr-02 02:30N 48°52' W 005°24'713.8
2018-Apr-02 01:58N 48°48' W 005°33'58712.0
2018-Mar-31 01:09N 39°31' W 009°53'5 9.8
2018-Mar-31 00:40N 39°27' W 009°53'2 9.5
2018-Mar-31 00:26N 39°24' W 009°53'4 9.6
2018-Mar-31 00:00N 39°20' W 009°53'5 9.8
2018-Mar-30 23:30N 39°15' W 009°53'5 9.8
2018-Mar-30 23:00N 39°10' W 009°53'5 9.3
2018-Mar-30 22:30N 39°06' W 009°53'5 9.2
2018-Mar-30 22:00N 39°01' W 009°53'5 9.3
2018-Mar-30 21:30N 38°56' W 009°53'5 9.4
2018-Mar-30 21:00N 38°52' W 009°53'5 9.0
2018-Mar-30 20:28N 38°47' W 009°52'4 9.0
2018-Mar-30 20:00N 38°43' W 009°52'4 8.9
2018-Mar-30 19:30N 38°38' W 009°50'4 8.8
2018-Mar-30 19:00N 38°34' W 009°49'4 8.9
2018-Mar-30 18:30N 38°30' W 009°48'5 9.2
2018-Mar-30 18:00N 38°25' W 009°46'5 9.5
2018-Mar-30 17:29N 38°21' W 009°45'5 9.9
2018-Mar-30 17:00N 38°16' W 009°43'510.1
2018-Mar-30 16:30N 38°11' W 009°41'510.3
2018-Mar-30 16:00N 38°06' W 009°40'510.5
2018-Mar-30 15:30N 38°01' W 009°38'611.0
2018-Mar-30 15:00N 37°56' W 009°37'  

Dump ship's entire track history